createdAt,value
2022-10-26T00:00:20.043Z,46.772000
2022-10-26T00:05:22.282Z,46.425714
2022-10-26T00:10:27.176Z,46.100000
2022-10-26T00:15:27.471Z,45.752000
2022-10-26T00:20:29.866Z,45.416000
2022-10-26T00:25:32.729Z,45.224000
2022-10-26T00:30:16.154Z,45.008000
2022-10-26T00:35:24.060Z,44.780000
2022-10-26T00:40:19.831Z,44.756000
2022-10-26T00:45:23.404Z,44.522857
2022-10-26T00:50:26.543Z,44.408000
2022-10-26T00:55:28.868Z,44.240000
2022-10-26T01:00:34.835Z,44.137143
2022-10-26T01:05:16.171Z,44.060000
2022-10-26T01:10:18.739Z,44.036000
2022-10-26T01:15:22.594Z,43.880000
2022-10-26T01:20:23.995Z,44.137143
2022-10-26T01:25:26.881Z,44.420000
2022-10-26T01:30:30.247Z,44.312000
2022-10-26T01:35:32.324Z,43.844000
2022-10-26T01:40:34.983Z,43.340000
2022-10-26T01:45:18.805Z,43.136000
2022-10-26T01:50:21.927Z,42.752000
2022-10-26T01:55:24.627Z,42.504286
2022-10-26T02:00:26.372Z,42.272000
2022-10-26T02:05:29.157Z,42.344000
2022-10-26T02:10:32.649Z,42.440000
2022-10-26T02:15:35.298Z,42.296000
2022-10-26T02:20:18.639Z,42.260000
2022-10-26T02:25:21.915Z,42.104000
2022-10-26T02:30:24.443Z,41.951429
2022-10-26T02:35:26.174Z,41.900000
2022-10-26T02:40:30.108Z,41.768000
2022-10-26T02:45:32.688Z,41.636000
2022-10-26T02:50:34.363Z,41.540000
2022-10-26T02:55:17.317Z,41.384000
2022-10-26T03:00:20.485Z,41.108000
2022-10-26T03:05:23.306Z,40.768571
2022-10-26T03:10:25.025Z,40.556000
2022-10-26T03:15:27.746Z,40.424000
2022-10-26T03:20:31.615Z,40.280000
2022-10-26T03:25:32.956Z,40.184000
2022-10-26T03:30:16.592Z,40.004000
2022-10-26T03:35:18.429Z,39.752000
2022-10-26T03:40:21.836Z,39.740000
2022-10-26T03:45:24.402Z,39.855714
2022-10-26T03:50:28.298Z,39.920000
2022-10-26T03:55:29.825Z,39.920000
2022-10-26T04:00:32.336Z,40.184000
2022-10-26T04:05:35.181Z,40.280000
2022-10-26T04:10:17.523Z,40.184000
2022-10-26T04:15:20.095Z,39.932000
2022-10-26T04:20:23.847Z,39.830000
2022-10-26T04:25:39.268Z,39.896000
2022-10-26T04:30:31.526Z,40.124000
2022-10-26T04:35:33.047Z,40.100000
2022-10-26T04:40:35.999Z,39.920000
2022-10-26T04:45:18.327Z,39.824000
2022-10-26T04:50:23.713Z,39.620000
2022-10-26T04:55:25.789Z,39.431429
2022-10-26T05:00:28.232Z,39.608000
2022-10-26T05:05:29.758Z,40.136000
2022-10-26T05:10:32.187Z,40.280000
2022-10-26T05:15:35.148Z,40.196000
2022-10-26T05:20:17.748Z,39.788000
2022-10-26T05:25:20.259Z,39.464000
2022-10-26T05:30:22.961Z,39.380000
2022-10-26T05:35:25.386Z,39.236000
2022-10-26T05:40:28.882Z,39.020000
2022-10-26T05:45:31.551Z,38.756000
2022-10-26T05:50:34.804Z,38.480000
2022-10-26T05:55:17.649Z,38.264000
2022-10-26T06:00:19.358Z,38.120000
2022-10-26T06:05:22.655Z,38.120000
2022-10-26T06:10:25.898Z,38.180000
2022-10-26T06:15:27.083Z,38.144000
2022-10-26T06:20:30.510Z,37.880000
2022-10-26T06:25:33.186Z,37.736000
2022-10-26T06:30:16.036Z,37.580000
2022-10-26T06:35:18.668Z,37.340000
2022-10-26T06:40:21.688Z,37.100000
2022-10-26T06:45:24.633Z,37.040000
2022-10-26T06:50:27.343Z,37.100000
2022-10-26T06:55:30.998Z,37.100000
2022-10-26T07:00:32.900Z,36.764000
2022-10-26T07:05:35.396Z,36.752000
2022-10-26T07:10:18.323Z,36.764000
2022-10-26T07:15:21.044Z,36.680000
2022-10-26T07:20:22.691Z,36.834286
2022-10-26T07:25:24.698Z,36.764000
2022-10-26T07:30:27.816Z,36.584000
2022-10-26T07:35:30.938Z,36.524000
2022-10-26T07:40:33.273Z,36.476000
2022-10-26T07:45:16.621Z,36.320000
2022-10-26T07:50:18.405Z,36.320000
2022-10-26T07:55:20.865Z,36.140000
2022-10-26T08:00:23.516Z,36.140000
2022-10-26T08:05:26.061Z,35.996000
2022-10-26T08:10:28.030Z,36.044000
2022-10-26T08:15:30.782Z,36.296000
2022-10-26T08:20:33.242Z,36.452000
2022-10-26T08:25:20.478Z,36.236000
2022-10-26T08:30:18.333Z,35.876000
2022-10-26T08:35:20.778Z,35.768000
2022-10-26T08:40:23.838Z,35.600000
2022-10-26T08:45:31.689Z,35.804000
2022-10-26T08:50:29.282Z,36.224000
2022-10-26T08:55:32.138Z,36.416000
2022-10-26T09:00:34.766Z,36.680000
2022-10-26T09:05:17.076Z,36.860000
2022-10-26T09:10:19.544Z,36.860000
2022-10-26T09:15:22.913Z,36.860000
2022-10-26T09:20:25.348Z,36.860000
2022-10-26T09:25:27.934Z,36.860000
2022-10-26T09:30:31.635Z,36.728000
2022-10-26T09:35:33.317Z,36.680000
2022-10-26T09:40:16.852Z,36.584000
2022-10-26T09:45:20.370Z,36.680000
2022-10-26T09:50:21.694Z,36.536000
2022-10-26T09:55:24.921Z,36.641429
2022-10-26T10:00:27.164Z,36.680000
2022-10-26T10:05:51.154Z,36.944000
2022-10-26T10:10:32.368Z,37.064000
2022-10-26T10:15:16.086Z,37.400000
2022-10-26T10:20:18.057Z,37.688000
2022-10-26T10:25:22.162Z,38.072000
2022-10-26T10:30:25.667Z,38.415714
2022-10-26T10:35:27.784Z,38.816000
2022-10-26T10:40:29.248Z,38.840000
2022-10-26T10:45:32.048Z,38.840000
2022-10-26T10:50:34.401Z,38.924000
2022-10-26T10:55:17.110Z,38.672000
2022-10-26T11:00:19.002Z,38.600000
2022-10-26T11:05:24.729Z,38.588000
2022-10-26T11:10:24.454Z,38.390000
2022-10-26T11:15:26.529Z,38.252000
2022-10-26T11:20:28.939Z,38.120000
2022-10-26T11:25:23.632Z,37.952000
2022-10-26T11:30:34.623Z,37.928000
2022-10-26T11:35:16.767Z,37.760000
2022-10-26T11:40:19.572Z,37.736000
2022-10-26T11:45:22.913Z,37.580000
2022-10-26T11:50:24.843Z,37.631429
2022-10-26T11:55:28.432Z,37.844000
2022-10-26T12:00:31.129Z,37.796000
2022-10-26T12:05:32.907Z,38.180000
2022-10-26T12:10:34.893Z,38.600000
2022-10-26T12:15:18.459Z,38.660000
2022-10-26T12:20:20.182Z,38.264000
2022-10-26T12:25:23.700Z,37.862857
2022-10-26T12:30:25.603Z,37.976000
2022-10-26T12:35:29.277Z,38.216000
2022-10-26T12:40:32.672Z,38.432000
2022-10-26T12:45:35.098Z,38.540000
2022-10-26T12:50:17.598Z,38.948000
2022-10-26T12:55:19.023Z,39.020000
2022-10-26T13:00:22.767Z,38.756000
2022-10-26T13:05:23.811Z,38.248571
2022-10-26T13:10:27.238Z,38.264000
2022-10-26T13:15:31.032Z,38.444000
2022-10-26T13:20:34.811Z,38.660000
2022-10-26T13:25:16.451Z,38.564000
2022-10-26T13:30:21.200Z,38.240000
2022-10-26T13:35:21.976Z,38.540000
2022-10-26T13:40:25.556Z,39.534286
2022-10-26T13:45:27.030Z,39.668000
2022-10-26T13:50:32.116Z,39.380000
2022-10-26T13:55:32.586Z,39.128000
2022-10-26T14:00:34.830Z,39.020000
2022-10-26T14:05:17.339Z,39.020000
2022-10-26T14:10:21.123Z,39.092000
2022-10-26T14:15:22.490Z,39.200000
2022-10-26T14:20:24.709Z,39.200000
2022-10-26T14:25:36.222Z,39.272000
2022-10-26T14:30:30.705Z,39.464000
2022-10-26T14:35:32.568Z,39.692000
2022-10-26T14:40:36.217Z,40.124000
2022-10-26T14:45:29.359Z,40.436000
2022-10-26T14:50:19.449Z,40.748000
2022-10-26T14:55:23.710Z,40.987143
2022-10-26T15:00:25.851Z,41.300000
2022-10-26T15:05:29.059Z,41.360000
2022-10-26T15:10:30.751Z,41.516000
2022-10-26T15:15:35.267Z,41.720000
2022-10-26T15:20:16.190Z,41.612000
2022-10-26T15:25:18.900Z,41.768000
2022-10-26T15:30:21.538Z,43.064000
2022-10-26T15:35:24.284Z,44.060000
2022-10-26T15:40:27.967Z,44.756000
2022-10-26T15:45:29.261Z,44.084000
2022-10-26T15:50:32.221Z,43.724000
2022-10-26T15:55:36.531Z,43.808000
2022-10-26T16:00:18.328Z,44.360000
2022-10-26T16:05:22.637Z,44.828000
2022-10-26T16:10:23.563Z,45.127143
2022-10-26T16:15:26.618Z,44.912000
2022-10-26T16:20:30.722Z,45.488000
2022-10-26T16:25:32.441Z,45.668000
2022-10-26T16:30:34.879Z,46.304000
2022-10-26T16:35:19.151Z,46.628000
2022-10-26T16:40:21.092Z,46.052000
2022-10-26T16:45:23.751Z,45.680000
2022-10-26T16:50:25.805Z,45.728000
2022-10-26T16:55:28.334Z,45.764000
2022-10-26T17:00:32.215Z,46.040000
2022-10-26T17:05:33.867Z,46.376000
2022-10-26T17:10:16.146Z,46.796000
2022-10-26T17:15:20.262Z,47.144000
2022-10-26T17:20:21.903Z,47.588000
2022-10-26T17:25:25.364Z,48.174286
2022-10-26T17:30:29.414Z,48.080000
2022-10-26T17:35:31.387Z,47.612000
2022-10-26T17:40:32.753Z,47.276000
2022-10-26T17:45:35.746Z,46.760000
2022-10-26T17:50:18.028Z,46.688000
2022-10-26T17:55:21.092Z,46.940000
2022-10-26T18:00:23.328Z,46.554286
2022-10-26T18:05:25.744Z,45.020000
2022-10-26T18:10:38.241Z,45.092000
2022-10-26T18:15:32.237Z,45.500000
2022-10-26T18:20:35.234Z,47.660000
2022-10-26T18:25:15.973Z,46.820000
2022-10-26T18:30:18.852Z,41.948000
2022-10-26T18:35:23.451Z,40.688000
2022-10-26T18:40:25.130Z,41.012857
2022-10-26T18:45:27.083Z,41.300000
2022-10-26T18:50:30.419Z,41.024000
2022-10-26T18:55:31.885Z,40.400000
2022-10-26T19:00:36.686Z,40.088000
2022-10-26T19:05:17.388Z,39.176000
2022-10-26T19:10:20.433Z,38.648000
2022-10-26T19:15:22.967Z,38.621429
2022-10-26T19:20:27.116Z,39.092000
2022-10-26T19:25:30.137Z,39.656000
2022-10-26T19:30:33.084Z,40.412000
2022-10-26T19:35:41.918Z,40.964000
2022-10-26T19:40:17.036Z,40.796000
2022-10-26T19:45:22.566Z,40.524286
2022-10-26T19:50:24.140Z,41.048000
2022-10-26T19:55:26.790Z,41.060000
2022-10-26T20:00:30.675Z,41.468000
2022-10-26T20:05:33.180Z,42.020000
2022-10-26T20:10:34.858Z,41.648000
2022-10-26T20:15:17.220Z,41.408000
2022-10-26T20:20:19.772Z,41.672000
2022-10-26T20:25:24.405Z,41.964286
2022-10-26T20:30:25.777Z,42.248000
2022-10-26T20:35:28.519Z,42.248000
2022-10-26T20:40:32.679Z,41.984000
2022-10-26T20:45:34.575Z,42.284000
2022-10-26T20:50:35.645Z,42.584000
2022-10-26T20:55:19.054Z,42.740000
2022-10-26T21:00:22.519Z,42.710000
2022-10-26T21:05:28.528Z,42.716000
2022-10-26T21:10:28.440Z,42.716000
2022-10-26T21:15:32.580Z,42.692000
2022-10-26T21:20:35.064Z,42.740000
2022-10-26T21:25:17.948Z,42.824000
2022-10-26T21:30:20.408Z,42.560000
2022-10-26T21:35:23.159Z,42.401429
2022-10-26T21:40:26.424Z,42.440000
2022-10-26T21:45:28.919Z,42.548000
2022-10-26T21:50:32.094Z,42.440000
2022-10-26T21:55:34.363Z,42.380000
2022-10-26T22:00:18.061Z,42.200000
2022-10-26T22:05:20.182Z,41.972000
2022-10-26T22:10:22.910Z,39.521429
2022-10-26T22:15:25.692Z,38.336000
2022-10-26T22:20:29.500Z,38.120000
2022-10-26T22:25:31.834Z,38.252000
2022-10-26T22:30:34.408Z,38.624000
2022-10-26T22:35:28.978Z,38.360000
2022-10-26T22:40:19.840Z,38.720000
2022-10-26T22:45:23.378Z,39.367143
2022-10-26T22:50:25.191Z,39.500000
2022-10-26T22:55:28.496Z,38.312000
2022-10-26T23:00:31.585Z,37.940000
2022-10-26T23:05:34.288Z,37.856000
2022-10-26T23:10:17.220Z,37.844000
2022-10-26T23:15:19.872Z,37.820000
2022-10-26T23:20:23.470Z,37.708571
2022-10-26T23:25:26.479Z,37.760000
2022-10-26T23:30:28.868Z,37.604000
2022-10-26T23:35:32.831Z,37.580000
2022-10-26T23:40:34.032Z,37.580000
2022-10-26T23:45:16.008Z,37.580000
2022-10-26T23:50:18.901Z,37.580000
2022-10-26T23:55:23.029Z,37.374286
